createdAt,value
2019-01-24T00:01:23.402Z,87.57
2019-01-24T00:03:25.223Z,98.58
2019-01-24T00:05:27.047Z,107.60
2019-01-24T00:07:29.070Z,96.82
2019-01-24T00:09:30.800Z,100.20
2019-01-24T00:11:32.494Z,96.97
2019-01-24T00:13:34.566Z,82.33
2019-01-24T00:15:36.278Z,92.78
2019-01-24T00:17:38.005Z,98.72
2019-01-24T00:19:39.734Z,106.50
2019-01-24T00:21:41.455Z,85.32
2019-01-24T00:23:43.206Z,99.70
2019-01-24T00:25:45.399Z,95.25
2019-01-24T00:27:47.290Z,106.72
2019-01-24T00:29:49.254Z,109.52
2019-01-24T00:31:50.966Z,76.50
2019-01-24T00:33:52.788Z,101.02
2019-01-24T00:35:54.675Z,88.22
2019-01-24T00:37:56.400Z,96.72
2019-01-24T00:39:58.114Z,98.65
2019-01-24T00:42:00.011Z,88.65
2019-01-24T00:44:01.943Z,97.75
2019-01-24T00:46:03.766Z,81.87
2019-01-24T00:48:05.602Z,77.70
2019-01-24T00:50:07.840Z,74.65
2019-01-24T00:52:09.678Z,98.85
2019-01-24T00:54:11.526Z,67.22
2019-01-24T00:56:13.230Z,95.10
2019-01-24T00:58:15.049Z,73.45
2019-01-24T01:00:19.516Z,90.57
2019-01-24T01:02:21.414Z,93.20
2019-01-24T01:04:29.585Z,86.20
2019-01-24T01:06:26.851Z,76.07
2019-01-24T01:08:28.655Z,77.15
2019-01-24T01:10:30.498Z,85.05
2019-01-24T01:12:32.571Z,77.12
2019-01-24T01:14:34.408Z,69.07
2019-01-24T01:16:36.218Z,77.82
2019-01-24T01:18:37.979Z,68.95
2019-01-24T01:20:39.690Z,72.32
2019-01-24T01:22:41.508Z,74.87
2019-01-24T01:24:43.350Z,77.60
2019-01-24T01:26:45.151Z,60.23
2019-01-24T01:28:47.065Z,77.25
2019-01-24T01:30:48.822Z,66.40
2019-01-24T01:32:51.206Z,71.92
2019-01-24T01:34:53.300Z,80.72
2019-01-24T01:36:58.273Z,84.15
2019-01-24T01:38:59.597Z,57.93
2019-01-24T01:41:01.298Z,61.35
2019-01-24T01:43:03.245Z,55.88
2019-01-24T01:45:07.467Z,69.42
2019-01-24T01:47:09.179Z,65.00
2019-01-24T01:49:11.071Z,50.83
2019-01-24T01:51:12.789Z,52.55
2019-01-24T01:53:14.512Z,56.85
2019-01-24T01:55:16.458Z,50.50
2019-01-24T01:57:18.390Z,62.10
2019-01-24T01:59:20.098Z,56.08
2019-01-24T02:01:21.833Z,51.40
2019-01-24T02:03:23.523Z,51.58
2019-01-24T02:05:25.352Z,52.80
2019-01-24T02:07:27.069Z,53.48
2019-01-24T02:09:28.790Z,55.55
2019-01-24T02:11:30.529Z,54.50
2019-01-24T02:13:32.262Z,59.10
2019-01-24T02:15:34.069Z,52.13
2019-01-24T02:17:35.890Z,36.50
2019-01-24T02:19:38.071Z,62.25
2019-01-24T02:21:39.790Z,59.98
2019-01-24T02:23:41.614Z,47.10
2019-01-24T02:25:43.435Z,56.15
2019-01-24T02:27:45.392Z,60.48
2019-01-24T02:29:47.210Z,60.05
2019-01-24T02:31:49.027Z,50.30
2019-01-24T02:33:50.766Z,57.33
2019-01-24T02:35:52.592Z,67.50
2019-01-24T02:37:54.430Z,54.27
2019-01-24T02:39:56.166Z,52.25
2019-01-24T02:41:57.862Z,57.95
2019-01-24T02:43:59.587Z,52.27
2019-01-24T02:46:01.543Z,61.18
2019-01-24T02:48:03.660Z,54.67
2019-01-24T02:50:07.855Z,61.50
2019-01-24T02:52:09.740Z,60.28
2019-01-24T02:54:11.460Z,59.90
2019-01-24T02:56:13.172Z,59.90
2019-01-24T02:58:14.912Z,54.45
2019-01-24T03:00:18.377Z,52.33
2019-01-24T03:02:20.195Z,52.83
2019-01-24T03:04:22.034Z,53.20
2019-01-24T03:06:23.746Z,49.48
2019-01-24T03:08:25.483Z,46.23
2019-01-24T03:10:27.218Z,55.73
2019-01-24T03:12:28.971Z,48.80
2019-01-24T03:14:30.679Z,49.15
2019-01-24T03:16:32.541Z,65.78
2019-01-24T03:18:34.234Z,61.73
2019-01-24T03:20:36.062Z,59.55
2019-01-24T03:22:37.999Z,62.33
2019-01-24T03:24:39.700Z,57.45
2019-01-24T03:26:41.430Z,51.53
2019-01-24T03:28:43.127Z,51.30
2019-01-24T03:30:44.844Z,51.83
2019-01-24T03:32:46.641Z,55.65
2019-01-24T03:34:48.392Z,61.83
2019-01-24T03:36:50.104Z,67.05
2019-01-24T03:38:51.813Z,67.62
2019-01-24T03:40:53.539Z,67.92
2019-01-24T03:42:55.238Z,59.80
2019-01-24T03:44:56.978Z,66.40
2019-01-24T03:46:58.706Z,51.88
2019-01-24T03:49:00.411Z,57.15
2019-01-24T03:51:02.350Z,59.00
2019-01-24T03:53:04.314Z,64.27
2019-01-24T03:55:06.589Z,63.92
2019-01-24T03:57:08.538Z,54.75
2019-01-24T03:59:10.363Z,58.45
2019-01-24T04:01:12.167Z,55.05
2019-01-24T04:03:14.401Z,60.98
2019-01-24T04:05:16.521Z,51.73
2019-01-24T04:07:18.471Z,51.10
2019-01-24T04:09:21.141Z,58.75
2019-01-24T04:11:22.934Z,62.60
2019-01-24T04:13:24.663Z,67.30
2019-01-24T04:15:26.526Z,54.93
2019-01-24T04:17:28.248Z,55.35
2019-01-24T04:19:29.954Z,51.15
2019-01-24T04:21:32.252Z,53.80
2019-01-24T04:23:33.963Z,45.12
2019-01-24T04:25:35.670Z,53.90
2019-01-24T04:27:37.532Z,62.15
2019-01-24T04:29:39.252Z,48.40
2019-01-24T04:31:40.976Z,45.85
2019-01-24T04:33:42.722Z,44.58
2019-01-24T04:35:44.437Z,45.58
2019-01-24T04:37:46.798Z,40.20
2019-01-24T04:39:48.546Z,52.05
2019-01-24T04:41:50.252Z,44.08
2019-01-24T04:43:52.002Z,45.17
2019-01-24T04:45:53.711Z,50.90
2019-01-24T04:47:55.658Z,42.58
2019-01-24T04:49:57.370Z,48.25
2019-01-24T04:51:59.114Z,46.37
2019-01-24T04:54:00.894Z,40.55
2019-01-24T04:56:03.331Z,47.30
2019-01-24T04:58:05.298Z,44.60
2019-01-24T05:00:11.549Z,48.52
2019-01-24T05:02:13.294Z,44.73
2019-01-24T05:04:15.095Z,43.92
2019-01-24T05:06:16.815Z,38.38
2019-01-24T05:08:18.517Z,43.80
2019-01-24T05:10:20.430Z,41.77
2019-01-24T05:12:22.162Z,47.75
2019-01-24T05:14:23.875Z,39.13
2019-01-24T05:16:25.719Z,43.42
2019-01-24T05:18:27.445Z,41.15
2019-01-24T05:20:29.166Z,45.95
2019-01-24T05:22:30.906Z,49.40
2019-01-24T05:24:32.618Z,47.10
2019-01-24T05:26:34.326Z,49.25
2019-01-24T05:28:36.082Z,38.13
2019-01-24T05:30:37.876Z,46.58
2019-01-24T05:32:39.585Z,47.62
2019-01-24T05:34:41.329Z,45.92
2019-01-24T05:36:46.357Z,49.90
2019-01-24T05:38:48.074Z,47.20
2019-01-24T05:40:50.169Z,51.92
2019-01-24T05:42:51.976Z,51.98
2019-01-24T05:44:53.691Z,53.87
2019-01-24T05:46:55.435Z,46.23
2019-01-24T05:48:57.146Z,44.33
2019-01-24T05:50:58.861Z,40.85
2019-01-24T05:53:20.300Z,59.50
2019-01-24T05:55:22.154Z,49.08
2019-01-24T05:57:23.894Z,45.78
2019-01-24T05:59:25.711Z,41.35
2019-01-24T06:01:27.939Z,49.50
2019-01-24T06:03:29.837Z,52.00
2019-01-24T06:05:31.802Z,45.80
2019-01-24T06:07:33.555Z,48.02
2019-01-24T06:09:35.298Z,37.63
2019-01-24T06:11:37.343Z,45.45
2019-01-24T06:13:39.072Z,52.40
2019-01-24T06:15:40.926Z,43.02
2019-01-24T06:17:43.010Z,48.40
2019-01-24T06:19:44.866Z,44.13
2019-01-24T06:21:46.894Z,48.10
2019-01-24T06:23:48.802Z,54.05
2019-01-24T06:25:50.634Z,53.00
2019-01-24T06:27:52.363Z,52.98
2019-01-24T06:29:54.141Z,49.18
2019-01-24T06:31:55.978Z,50.03
2019-01-24T06:33:57.706Z,48.25
2019-01-24T06:35:59.464Z,50.20
2019-01-24T06:38:01.251Z,52.83
2019-01-24T06:40:04.558Z,43.23
2019-01-24T06:42:06.525Z,40.88
2019-01-24T06:44:08.258Z,51.13
2019-01-24T06:46:09.973Z,54.53
2019-01-24T06:48:11.711Z,50.45
2019-01-24T06:50:14.059Z,45.43
2019-01-24T06:52:15.810Z,48.92
2019-01-24T06:54:17.535Z,46.18
2019-01-24T06:56:19.286Z,47.23
2019-01-24T06:58:21.014Z,50.78
2019-01-24T07:00:22.952Z,58.60
2019-01-24T07:02:24.698Z,50.80
2019-01-24T07:04:26.432Z,51.60
2019-01-24T07:06:28.266Z,49.77
2019-01-24T07:08:30.038Z,48.35
2019-01-24T07:10:31.890Z,48.87
2019-01-24T07:12:33.610Z,49.63
2019-01-24T07:14:35.455Z,61.40
2019-01-24T07:16:37.182Z,45.75
2019-01-24T07:18:39.042Z,46.00
2019-01-24T07:20:40.909Z,56.00
2019-01-24T07:22:42.744Z,48.45
2019-01-24T07:24:44.740Z,47.60
2019-01-24T07:26:46.491Z,50.25
2019-01-24T07:28:48.218Z,48.10
2019-01-24T07:30:49.946Z,48.35
2019-01-24T07:32:51.778Z,53.40
2019-01-24T07:34:53.535Z,52.45
2019-01-24T07:36:55.263Z,51.53
2019-01-24T07:38:56.994Z,52.75
2019-01-24T07:40:58.739Z,49.77
2019-01-24T07:43:00.459Z,59.23
2019-01-24T07:45:03.690Z,47.25
2019-01-24T07:47:05.414Z,61.00
2019-01-24T07:49:07.189Z,53.50
2019-01-24T07:51:08.931Z,56.98
2019-01-24T07:53:10.802Z,50.15
2019-01-24T07:55:12.839Z,59.42
2019-01-24T07:57:14.658Z,60.67
2019-01-24T07:59:16.490Z,54.00
2019-01-24T08:01:18.311Z,48.83
2019-01-24T08:03:20.035Z,55.05
2019-01-24T08:05:22.434Z,54.88
2019-01-24T08:07:24.142Z,51.45
2019-01-24T08:09:25.888Z,55.80
2019-01-24T08:11:27.641Z,55.15
2019-01-24T08:13:29.479Z,49.58
2019-01-24T08:15:31.461Z,54.73
2019-01-24T08:17:33.277Z,52.43
2019-01-24T08:19:34.999Z,46.65
2019-01-24T08:21:36.920Z,50.23
2019-01-24T08:23:38.647Z,42.48
2019-01-24T08:25:40.481Z,43.10
2019-01-24T08:27:42.302Z,51.45
2019-01-24T08:29:44.039Z,51.05
2019-01-24T08:31:45.735Z,58.87
2019-01-24T08:33:47.593Z,48.87
2019-01-24T08:35:49.754Z,48.85
2019-01-24T08:37:51.776Z,48.85
2019-01-24T08:39:53.502Z,49.58
2019-01-24T08:41:55.240Z,56.60
2019-01-24T08:43:56.962Z,58.42
2019-01-24T08:45:58.703Z,49.73
2019-01-24T08:48:00.441Z,48.58
2019-01-24T08:50:03.423Z,49.85
2019-01-24T08:52:05.263Z,51.95
2019-01-24T08:54:06.986Z,47.78
2019-01-24T08:56:08.715Z,41.10
2019-01-24T08:58:10.854Z,47.65
2019-01-24T09:00:14.990Z,50.15
2019-01-24T09:02:16.718Z,42.95
2019-01-24T09:04:18.459Z,43.92
2019-01-24T09:06:22.673Z,46.40
2019-01-24T09:08:23.922Z,47.88
2019-01-24T09:10:28.618Z,50.98
2019-01-24T09:12:30.668Z,45.45
2019-01-24T09:14:32.561Z,47.75
2019-01-24T09:16:34.295Z,44.03
2019-01-24T09:18:36.017Z,54.10
2019-01-24T09:20:37.985Z,58.58
2019-01-24T09:22:39.987Z,51.20
2019-01-24T09:24:41.742Z,45.85
2019-01-24T09:26:43.607Z,49.00
2019-01-24T09:28:45.355Z,50.90
2019-01-24T09:30:47.088Z,51.08
2019-01-24T09:32:48.926Z,48.10
2019-01-24T09:34:50.740Z,53.10
2019-01-24T09:36:52.660Z,48.92
2019-01-24T09:38:54.382Z,49.18
2019-01-24T09:40:56.103Z,48.05
2019-01-24T09:42:58.136Z,52.90
2019-01-24T09:44:59.846Z,45.12
2019-01-24T09:47:01.566Z,56.28
2019-01-24T09:49:03.533Z,60.17
2019-01-24T09:51:05.330Z,50.70
2019-01-24T09:53:07.162Z,54.08
2019-01-24T09:55:09.246Z,53.33
2019-01-24T09:57:10.960Z,39.18
2019-01-24T09:59:12.792Z,50.73
2019-01-24T10:01:14.725Z,47.98
2019-01-24T10:03:16.434Z,47.78
2019-01-24T10:05:18.686Z,55.05
2019-01-24T10:07:20.433Z,61.25
2019-01-24T10:09:22.154Z,56.77
2019-01-24T10:11:23.874Z,56.23
2019-01-24T10:13:25.750Z,48.40
2019-01-24T10:15:27.696Z,50.70
2019-01-24T10:17:29.703Z,50.85
2019-01-24T10:19:31.418Z,57.25
2019-01-24T10:21:33.258Z,51.20
2019-01-24T10:23:34.974Z,53.00
2019-01-24T10:25:37.948Z,55.15
2019-01-24T10:27:39.664Z,50.03
2019-01-24T10:29:41.384Z,58.05
2019-01-24T10:31:43.154Z,43.70
2019-01-24T10:33:45.075Z,49.70
2019-01-24T10:35:46.894Z,55.10
2019-01-24T10:37:49.041Z,59.53
2019-01-24T10:39:50.960Z,58.17
2019-01-24T10:41:52.827Z,54.10
2019-01-24T10:43:54.657Z,49.95
2019-01-24T10:45:56.477Z,51.35
2019-01-24T10:47:58.398Z,60.40
2019-01-24T10:50:00.418Z,57.62
2019-01-24T10:52:02.303Z,56.15
2019-01-24T10:54:04.026Z,48.00
2019-01-24T10:56:05.886Z,55.88
2019-01-24T10:58:07.604Z,55.40
2019-01-24T11:00:13.034Z,64.07
2019-01-24T11:02:14.952Z,71.35
2019-01-24T11:04:16.671Z,48.83
2019-01-24T11:06:18.495Z,51.63
2019-01-24T11:08:20.342Z,53.75
2019-01-24T11:10:22.279Z,56.50
2019-01-24T11:12:24.085Z,56.88
2019-01-24T11:14:25.931Z,63.75
2019-01-24T11:16:27.754Z,57.20
2019-01-24T11:18:29.461Z,54.05
2019-01-24T11:20:31.212Z,49.75
2019-01-24T11:22:33.195Z,58.65
2019-01-24T11:24:34.921Z,54.55
2019-01-24T11:26:37.035Z,57.33
2019-01-24T11:28:38.894Z,52.40
2019-01-24T11:30:40.868Z,51.18
2019-01-24T11:32:42.892Z,53.33
2019-01-24T11:34:44.724Z,55.88
2019-01-24T11:36:46.590Z,63.65
2019-01-24T11:38:48.669Z,52.78
2019-01-24T11:40:50.482Z,51.90
2019-01-24T11:42:52.693Z,54.63
2019-01-24T11:44:54.413Z,47.48
2019-01-24T11:46:56.439Z,64.25
2019-01-24T11:48:58.178Z,53.90
2019-01-24T11:50:59.919Z,49.38
2019-01-24T11:53:01.683Z,48.35
2019-01-24T11:55:04.222Z,62.95
2019-01-24T11:57:05.963Z,56.92
2019-01-24T11:59:07.735Z,50.05
2019-01-24T12:01:09.483Z,54.38
2019-01-24T12:03:11.899Z,57.45
2019-01-24T12:05:14.251Z,60.12
2019-01-24T12:07:15.970Z,58.23
2019-01-24T12:09:18.054Z,51.65
2019-01-24T12:11:19.767Z,52.60
2019-01-24T12:13:21.592Z,54.98
2019-01-24T12:15:24.460Z,53.10
2019-01-24T12:17:26.178Z,55.65
2019-01-24T12:19:27.891Z,44.73
2019-01-24T12:21:29.724Z,50.35
2019-01-24T12:23:32.371Z,50.52
2019-01-24T12:25:34.200Z,57.70
2019-01-24T12:27:36.043Z,53.73
2019-01-24T12:29:37.787Z,59.40
2019-01-24T12:31:39.759Z,50.60
2019-01-24T12:33:41.544Z,51.05
2019-01-24T12:35:43.444Z,56.20
2019-01-24T12:37:45.282Z,46.25
2019-01-24T12:39:47.003Z,55.75
2019-01-24T12:41:48.746Z,50.00
2019-01-24T12:43:50.470Z,51.83
2019-01-24T12:45:52.435Z,48.90
2019-01-24T12:47:54.389Z,47.40
2019-01-24T12:49:56.199Z,50.28
2019-01-24T12:51:57.911Z,53.75
2019-01-24T12:54:00.426Z,49.42
2019-01-24T12:56:02.614Z,57.03
2019-01-24T12:58:04.774Z,45.50
2019-01-24T13:00:10.738Z,52.65
2019-01-24T13:02:12.442Z,53.50
2019-01-24T13:04:14.183Z,52.13
2019-01-24T13:06:15.919Z,56.08
2019-01-24T13:08:17.778Z,45.50
2019-01-24T13:10:21.399Z,56.13
2019-01-24T13:12:23.121Z,55.95
2019-01-24T13:14:24.838Z,55.65
2019-01-24T13:16:26.546Z,49.67
2019-01-24T13:18:28.270Z,58.58
2019-01-24T13:20:30.178Z,47.13
2019-01-24T13:22:32.008Z,53.98
2019-01-24T13:24:33.991Z,48.33
2019-01-24T13:26:35.832Z,47.48
2019-01-24T13:28:37.539Z,54.23
2019-01-24T13:30:39.360Z,46.25
2019-01-24T13:32:41.225Z,47.73
2019-01-24T13:34:42.965Z,55.23
2019-01-24T13:36:44.675Z,53.23
2019-01-24T13:38:46.602Z,49.70
2019-01-24T13:40:48.532Z,52.65
2019-01-24T13:42:50.326Z,51.60
2019-01-24T13:44:52.055Z,51.37
2019-01-24T13:46:53.902Z,55.28
2019-01-24T13:48:55.741Z,51.55
2019-01-24T13:50:57.482Z,66.12
2019-01-24T13:52:59.443Z,55.40
2019-01-24T13:55:01.457Z,57.85
2019-01-24T13:57:03.489Z,54.40
2019-01-24T13:59:05.323Z,65.00
2019-01-24T14:01:07.249Z,57.70
2019-01-24T14:03:20.564Z,60.73
2019-01-24T14:05:22.290Z,51.25
2019-01-24T14:07:23.987Z,53.23
2019-01-24T14:09:25.726Z,56.18
2019-01-24T14:11:27.574Z,56.42
2019-01-24T14:13:29.291Z,59.42
2019-01-24T14:15:31.016Z,72.20
2019-01-24T14:17:32.755Z,59.08
2019-01-24T14:19:34.501Z,51.30
2019-01-24T14:21:36.325Z,56.02
2019-01-24T14:23:38.214Z,49.73
2019-01-24T14:25:40.118Z,51.98
2019-01-24T14:27:42.094Z,61.37
2019-01-24T14:29:43.974Z,61.95
2019-01-24T14:31:45.846Z,57.45
2019-01-24T14:33:47.569Z,63.33
2019-01-24T14:35:49.478Z,66.33
2019-01-24T14:37:51.295Z,51.13
2019-01-24T14:39:53.158Z,62.48
2019-01-24T14:41:54.895Z,48.85
2019-01-24T14:43:56.626Z,53.35
2019-01-24T14:45:58.330Z,59.18
2019-01-24T14:48:00.282Z,60.58
2019-01-24T14:50:03.135Z,52.35
2019-01-24T14:52:05.198Z,44.83
2019-01-24T14:54:07.167Z,48.52
2019-01-24T14:56:09.142Z,49.65
2019-01-24T14:58:11.206Z,43.50
2019-01-24T15:00:30.663Z,47.08
2019-01-24T15:02:32.386Z,51.55
2019-01-24T15:04:34.230Z,49.13
2019-01-24T15:06:36.059Z,49.23
2019-01-24T15:08:37.880Z,41.18
2019-01-24T15:10:39.800Z,44.45
2019-01-24T15:12:41.638Z,46.20
2019-01-24T15:14:43.382Z,41.02
2019-01-24T15:16:45.103Z,46.28
2019-01-24T15:18:47.131Z,49.58
2019-01-24T15:20:48.832Z,51.80
2019-01-24T15:22:50.650Z,53.35
2019-01-24T15:24:52.401Z,51.58
2019-01-24T15:26:54.114Z,59.80
2019-01-24T15:28:55.934Z,49.83
2019-01-24T15:30:57.908Z,42.60
2019-01-24T15:32:59.731Z,47.10
2019-01-24T15:35:01.562Z,48.17
2019-01-24T15:37:03.510Z,49.45
2019-01-24T15:39:06.814Z,49.53
2019-01-24T15:41:08.652Z,48.48
2019-01-24T15:43:10.660Z,45.00
2019-01-24T15:45:14.450Z,46.05
2019-01-24T15:47:16.263Z,41.23
2019-01-24T15:49:18.082Z,45.12
2019-01-24T15:51:19.858Z,50.17
2019-01-24T15:53:21.754Z,53.05
2019-01-24T15:55:23.598Z,47.05
2019-01-24T15:57:25.332Z,61.10
2019-01-24T15:59:27.050Z,51.53
2019-01-24T16:01:28.790Z,48.25
2019-01-24T16:03:30.619Z,51.23
2019-01-24T16:05:32.628Z,48.38
2019-01-24T16:07:34.362Z,53.25
2019-01-24T16:09:36.180Z,56.60
2019-01-24T16:11:37.962Z,43.33
2019-01-24T16:13:39.647Z,58.90
2019-01-24T16:15:41.412Z,46.40
2019-01-24T16:17:43.249Z,44.08
2019-01-24T16:19:45.074Z,51.80
2019-01-24T16:21:46.815Z,50.67
2019-01-24T16:23:48.528Z,48.80
2019-01-24T16:25:50.248Z,51.10
2019-01-24T16:27:51.987Z,47.13
2019-01-24T16:29:53.710Z,54.65
2019-01-24T16:31:55.539Z,60.60
2019-01-24T16:33:57.487Z,51.85
2019-01-24T16:35:59.370Z,55.55
2019-01-24T16:38:01.546Z,57.50
2019-01-24T16:40:04.274Z,51.25
2019-01-24T16:42:06.038Z,42.30
2019-01-24T16:44:07.854Z,51.95
2019-01-24T16:46:09.659Z,45.28
2019-01-24T16:48:11.610Z,54.48
2019-01-24T16:50:14.430Z,38.35
2019-01-24T16:52:16.141Z,54.18
2019-01-24T16:54:17.861Z,44.18
2019-01-24T16:56:19.797Z,54.42
2019-01-24T16:58:21.615Z,50.80
2019-01-24T17:00:26.180Z,52.93
2019-01-24T17:02:27.912Z,57.70
2019-01-24T17:04:29.753Z,54.03
2019-01-24T17:06:31.790Z,46.08
2019-01-24T17:08:33.551Z,50.50
2019-01-24T17:10:35.435Z,55.00
2019-01-24T17:12:37.213Z,50.20
2019-01-24T17:14:38.922Z,50.17
2019-01-24T17:16:41.140Z,43.95
2019-01-24T17:18:42.869Z,45.65
2019-01-24T17:20:44.707Z,47.62
2019-01-24T17:22:46.732Z,51.25
2019-01-24T17:24:48.454Z,52.88
2019-01-24T17:26:50.181Z,50.23
2019-01-24T17:28:54.968Z,42.20
2019-01-24T17:30:57.106Z,52.30
2019-01-24T17:32:59.219Z,41.73
2019-01-24T17:35:00.980Z,45.75
2019-01-24T17:37:02.934Z,54.23
2019-01-24T17:39:08.254Z,50.95
2019-01-24T17:41:10.085Z,43.40
2019-01-24T17:43:11.831Z,45.00
2019-01-24T17:45:14.514Z,42.53
2019-01-24T17:47:16.236Z,55.28
2019-01-24T17:49:18.193Z,44.83
2019-01-24T17:51:20.026Z,44.30
2019-01-24T17:53:21.835Z,45.45
2019-01-24T17:55:29.158Z,44.05
2019-01-24T17:57:30.898Z,47.23
2019-01-24T17:59:32.610Z,52.58
2019-01-24T18:01:34.439Z,50.67
2019-01-24T18:03:36.254Z,52.48
2019-01-24T18:05:38.073Z,52.90
2019-01-24T18:07:40.007Z,52.50
2019-01-24T18:09:41.783Z,61.88
2019-01-24T18:11:44.595Z,43.83
2019-01-24T18:13:46.930Z,50.05
2019-01-24T18:15:48.752Z,52.20
2019-01-24T18:17:50.700Z,51.50
2019-01-24T18:19:52.514Z,52.20
2019-01-24T18:21:54.231Z,57.55
2019-01-24T18:23:55.984Z,46.02
2019-01-24T18:25:58.926Z,56.53
2019-01-24T18:28:02.252Z,44.48
2019-01-24T18:30:27.831Z,45.52
2019-01-24T18:32:28.933Z,49.35
2019-01-24T18:34:30.822Z,47.73
2019-01-24T18:36:32.684Z,54.58
2019-01-24T18:38:38.449Z,56.65
2019-01-24T18:40:38.389Z,54.80
2019-01-24T18:42:40.551Z,48.70
2019-01-24T18:44:42.326Z,49.60
2019-01-24T18:46:51.083Z,51.45
2019-01-24T18:48:53.245Z,48.10
2019-01-24T18:50:55.175Z,42.38
2019-01-24T18:52:57.156Z,42.95
2019-01-24T18:54:59.146Z,48.25
2019-01-24T18:57:01.283Z,46.28
2019-01-24T18:59:03.644Z,47.13
2019-01-24T19:01:05.462Z,53.02
2019-01-24T19:03:08.388Z,50.80
2019-01-24T19:05:11.053Z,46.40
2019-01-24T19:07:12.755Z,49.70
2019-01-24T19:09:15.780Z,41.95
2019-01-24T19:11:17.526Z,39.83
2019-01-24T19:13:19.306Z,44.85
2019-01-24T19:15:21.333Z,45.75
2019-01-24T19:17:23.168Z,43.02
2019-01-24T19:19:36.710Z,35.88
2019-01-24T19:21:38.608Z,45.00
2019-01-24T19:23:40.349Z,41.55
2019-01-24T19:25:42.751Z,48.08
2019-01-24T19:27:44.861Z,54.67
2019-01-24T19:29:46.620Z,52.50
2019-01-24T19:31:48.982Z,54.95
2019-01-24T19:33:50.761Z,41.92
2019-01-24T19:36:00.080Z,50.92
2019-01-24T19:37:57.380Z,43.10
2019-01-24T19:39:59.147Z,40.80
2019-01-24T19:42:00.931Z,44.27
2019-01-24T19:44:03.458Z,44.30
2019-01-24T19:46:05.586Z,44.03
2019-01-24T19:48:07.571Z,39.63
2019-01-24T19:50:12.181Z,51.15
2019-01-24T19:52:14.082Z,44.23
2019-01-24T19:54:15.807Z,47.90
2019-01-24T19:56:17.829Z,47.98
2019-01-24T19:58:31.920Z,51.88
2019-01-24T20:00:33.871Z,43.98
2019-01-24T20:02:35.744Z,45.90
2019-01-24T20:04:37.736Z,41.98
2019-01-24T20:06:39.630Z,42.13
2019-01-24T20:08:41.577Z,46.40
2019-01-24T20:10:43.469Z,49.45
2019-01-24T20:12:45.467Z,48.70
2019-01-24T20:14:47.355Z,47.80
2019-01-24T20:16:49.347Z,51.10
2019-01-24T20:18:52.186Z,46.23
2019-01-24T20:20:54.038Z,44.70
2019-01-24T20:22:56.391Z,49.65
2019-01-24T20:24:58.283Z,42.73
2019-01-24T20:27:00.105Z,44.95
2019-01-24T20:29:02.038Z,46.60
2019-01-24T20:31:03.784Z,49.83
2019-01-24T20:33:05.642Z,46.25
2019-01-24T20:35:11.448Z,51.68
2019-01-24T20:37:13.471Z,46.42
2019-01-24T20:39:15.208Z,45.92
2019-01-24T20:41:17.183Z,41.65
2019-01-24T20:43:19.386Z,48.00
2019-01-24T20:45:21.187Z,45.45
2019-01-24T20:47:24.470Z,43.02
2019-01-24T20:49:26.733Z,38.98
2019-01-24T20:51:28.739Z,39.08
2019-01-24T20:53:30.539Z,46.58
2019-01-24T20:55:32.542Z,41.77
2019-01-24T20:57:34.890Z,44.70
2019-01-24T20:59:36.943Z,41.28
2019-01-24T21:01:38.874Z,46.15
2019-01-24T21:03:41.867Z,44.42
2019-01-24T21:05:43.725Z,39.70
2019-01-24T21:07:46.102Z,46.85
2019-01-24T21:09:48.038Z,46.20
2019-01-24T21:11:49.799Z,45.23
2019-01-24T21:13:56.204Z,40.03
2019-01-24T21:15:58.039Z,37.13
2019-01-24T21:17:59.755Z,41.92
2019-01-24T21:20:07.472Z,39.18
2019-01-24T21:22:09.628Z,46.42
2019-01-24T21:24:11.544Z,43.58
2019-01-24T21:26:13.391Z,43.55
2019-01-24T21:28:15.161Z,41.05
2019-01-24T21:30:19.536Z,45.92
2019-01-24T21:32:21.290Z,42.98
2019-01-24T21:34:23.061Z,40.85
2019-01-24T21:36:24.794Z,37.28
2019-01-24T21:38:26.975Z,42.95
2019-01-24T21:40:32.055Z,38.30
2019-01-24T21:42:33.890Z,41.77
2019-01-24T21:44:35.619Z,42.05
2019-01-24T21:46:37.346Z,43.85
2019-01-24T21:48:39.055Z,38.50
2019-01-24T21:50:41.566Z,42.50
2019-01-24T21:52:43.415Z,44.77
2019-01-24T21:54:45.256Z,42.75
2019-01-24T21:56:47.259Z,38.53
2019-01-24T21:58:48.998Z,40.23
2019-01-24T22:00:51.011Z,43.98
2019-01-24T22:02:52.978Z,40.52
2019-01-24T22:04:54.960Z,40.70
2019-01-24T22:06:57.014Z,39.67
2019-01-24T22:08:59.098Z,40.28
2019-01-24T22:11:00.967Z,43.98
2019-01-24T22:13:03.140Z,37.40
2019-01-24T22:15:08.239Z,42.53
2019-01-24T22:17:09.975Z,38.40
2019-01-24T22:19:12.187Z,43.25
2019-01-24T22:21:14.180Z,36.48
2019-01-24T22:23:15.898Z,44.75
2019-01-24T22:25:20.481Z,39.00
2019-01-24T22:27:22.363Z,42.62
2019-01-24T22:29:24.117Z,36.28
2019-01-24T22:31:26.157Z,39.03
2019-01-24T22:33:28.312Z,45.23
2019-01-24T22:35:30.245Z,39.15
2019-01-24T22:37:32.101Z,39.38
2019-01-24T22:39:36.680Z,37.17
2019-01-24T22:41:37.673Z,34.67
2019-01-24T22:43:39.530Z,46.98
2019-01-24T22:45:41.652Z,35.52
2019-01-24T22:47:43.451Z,45.12
2019-01-24T22:49:46.869Z,46.73
2019-01-24T22:51:48.594Z,42.70
2019-01-24T22:53:50.406Z,42.35
2019-01-24T22:55:53.250Z,40.15
2019-01-24T22:57:55.150Z,45.48
2019-01-24T23:00:17.633Z,38.90
2019-01-24T23:02:24.555Z,40.35
2019-01-24T23:04:26.462Z,38.20
2019-01-24T23:06:28.502Z,41.65
2019-01-24T23:08:30.240Z,38.70
2019-01-24T23:10:32.060Z,44.83
2019-01-24T23:12:33.813Z,46.23
2019-01-24T23:14:35.527Z,39.13
2019-01-24T23:16:37.363Z,41.42
2019-01-24T23:18:39.186Z,44.03
2019-01-24T23:20:41.229Z,41.60
2019-01-24T23:22:43.781Z,44.33
2019-01-24T23:24:45.620Z,41.63
2019-01-24T23:26:47.358Z,44.15
2019-01-24T23:28:49.085Z,36.60
2019-01-24T23:30:50.907Z,38.35
2019-01-24T23:32:52.790Z,39.90
2019-01-24T23:34:54.618Z,41.23
2019-01-24T23:36:56.350Z,46.65
2019-01-24T23:38:58.062Z,44.27
2019-01-24T23:41:00.123Z,48.20
2019-01-24T23:43:02.440Z,52.23
2019-01-24T23:45:04.819Z,44.27
2019-01-24T23:47:07.028Z,39.58
2019-01-24T23:49:08.742Z,46.13
2019-01-24T23:51:10.683Z,42.55
2019-01-24T23:53:12.674Z,40.28
2019-01-24T23:55:14.863Z,40.40
2019-01-24T23:57:23.739Z,42.25
2019-01-24T23:59:20.363Z,44.83
